sensor_id;sensor_type;location;lat;lon;timestamp;pressure;altitude;pressure_sealevel;temperature;humidity
12077;BME280;12420;42.676;23.262;2024-01-07T00:01:48;93098.75;;;5.90;100.00
12077;BME280;12420;42.676;23.262;2024-01-07T00:04:15;93095.50;;;5.91;100.00
12077;BME280;12420;42.676;23.262;2024-01-07T00:06:42;93081.34;;;5.87;100.00
12077;BME280;12420;42.676;23.262;2024-01-07T00:09:10;93084.09;;;5.87;100.00
12077;BME280;12420;42.676;23.262;2024-01-07T00:11:38;93069.34;;;5.77;100.00
12077;BME280;12420;42.676;23.262;2024-01-07T00:14:05;93069.28;;;5.90;100.00
12077;BME280;12420;42.676;23.262;2024-01-07T00:16:32;93066.75;;;5.92;100.00
12077;BME280;12420;42.676;23.262;2024-01-07T00:18:59;93075.72;;;5.93;100.00
12077;BME280;12420;42.676;23.262;2024-01-07T00:21:26;93070.16;;;5.98;100.00
12077;BME280;12420;42.676;23.262;2024-01-07T00:23:53;93072.50;;;5.81;100.00
12077;BME280;12420;42.676;23.262;2024-01-07T00:26:20;93063.63;;;5.88;100.00
12077;BME280;12420;42.676;23.262;2024-01-07T00:28:48;93062.75;;;5.93;100.00
12077;BME280;12420;42.676;23.262;2024-01-07T00:31:14;93059.84;;;5.78;100.00
12077;BME280;12420;42.676;23.262;2024-01-07T00:33:41;93048.75;;;5.49;100.00
12077;BME280;12420;42.676;23.262;2024-01-07T00:36:08;93042.81;;;5.58;100.00
12077;BME280;12420;42.676;23.262;2024-01-07T00:38:34;93039.81;;;5.70;100.00
12077;BME280;12420;42.676;23.262;2024-01-07T00:41:01;93029.91;;;5.66;100.00
12077;BME280;12420;42.676;23.262;2024-01-07T00:43:28;93020.47;;;5.75;100.00
12077;BME280;12420;42.676;23.262;2024-01-07T00:45:56;93020.28;;;5.73;100.00
12077;BME280;12420;42.676;23.262;2024-01-07T00:48:22;93019.19;;;5.76;100.00
12077;BME280;12420;42.676;23.262;2024-01-07T00:50:48;93009.56;;;5.83;100.00
12077;BME280;12420;42.676;23.262;2024-01-07T00:53:15;92993.63;;;5.81;100.00
12077;BME280;12420;42.676;23.262;2024-01-07T00:55:42;93004.41;;;5.79;100.00
12077;BME280;12420;42.676;23.262;2024-01-07T00:58:08;92990.34;;;5.83;100.00
12077;BME280;12420;42.676;23.262;2024-01-07T01:00:35;92974.00;;;5.77;100.00
12077;BME280;12420;42.676;23.262;2024-01-07T01:03:03;92983.78;;;5.86;100.00
12077;BME280;12420;42.676;23.262;2024-01-07T01:05:30;92990.75;;;5.87;100.00
12077;BME280;12420;42.676;23.262;2024-01-07T01:07:57;92988.00;;;5.87;100.00
12077;BME280;12420;42.676;23.262;2024-01-07T01:10:24;92978.16;;;5.92;100.00
12077;BME280;12420;42.676;23.262;2024-01-07T01:12:50;92987.69;;;5.91;100.00
12077;BME280;12420;42.676;23.262;2024-01-07T01:15:19;92976.28;;;5.86;100.00
12077;BME280;12420;42.676;23.262;2024-01-07T01:17:46;92969.19;;;5.91;100.00
12077;BME280;12420;42.676;23.262;2024-01-07T01:20:14;92960.94;;;5.91;100.00
12077;BME280;12420;42.676;23.262;2024-01-07T01:22:41;92953.78;;;5.88;100.00
12077;BME280;12420;42.676;23.262;2024-01-07T01:25:07;92949.69;;;5.81;100.00
12077;BME280;12420;42.676;23.262;2024-01-07T01:27:35;92934.09;;;5.76;100.00
12077;BME280;12420;42.676;23.262;2024-01-07T01:30:02;92925.06;;;5.89;100.00
12077;BME280;12420;42.676;23.262;2024-01-07T01:32:29;92922.72;;;5.93;100.00
12077;BME280;12420;42.676;23.262;2024-01-07T01:34:55;92913.44;;;5.96;100.00
12077;BME280;12420;42.676;23.262;2024-01-07T01:37:23;92906.84;;;5.99;100.00
12077;BME280;12420;42.676;23.262;2024-01-07T01:39:50;92901.94;;;6.05;100.00
12077;BME280;12420;42.676;23.262;2024-01-07T01:42:17;92896.66;;;6.07;100.00
12077;BME280;12420;42.676;23.262;2024-01-07T01:44:43;92902.53;;;6.12;100.00
12077;BME280;12420;42.676;23.262;2024-01-07T01:47:10;92895.75;;;6.13;100.00
12077;BME280;12420;42.676;23.262;2024-01-07T01:49:38;92891.75;;;6.14;100.00
12077;BME280;12420;42.676;23.262;2024-01-07T01:52:05;92879.25;;;5.84;100.00
12077;BME280;12420;42.676;23.262;2024-01-07T01:54:33;92869.06;;;5.92;100.00
12077;BME280;12420;42.676;23.262;2024-01-07T01:57:00;92840.63;;;5.53;100.00
12077;BME280;12420;42.676;23.262;2024-01-07T01:59:28;92850.31;;;5.54;100.00
12077;BME280;12420;42.676;23.262;2024-01-07T02:01:55;92852.19;;;5.59;100.00
12077;BME280;12420;42.676;23.262;2024-01-07T02:04:22;92849.84;;;5.63;100.00
12077;BME280;12420;42.676;23.262;2024-01-07T02:06:48;92857.59;;;5.73;100.00
12077;BME280;12420;42.676;23.262;2024-01-07T02:09:15;92863.81;;;5.73;100.00
12077;BME280;12420;42.676;23.262;2024-01-07T02:11:43;92857.03;;;5.74;100.00
12077;BME280;12420;42.676;23.262;2024-01-07T02:14:10;92859.84;;;5.82;100.00
12077;BME280;12420;42.676;23.262;2024-01-07T02:16:37;92852.16;;;5.80;100.00
12077;BME280;12420;42.676;23.262;2024-01-07T02:19:05;92850.72;;;5.87;100.00
12077;BME280;12420;42.676;23.262;2024-01-07T02:21:32;92825.50;;;5.60;100.00
12077;BME280;12420;42.676;23.262;2024-01-07T02:24:04;92825.28;;;5.58;100.00
12077;BME280;12420;42.676;23.262;2024-01-07T02:26:31;92807.28;;;5.49;100.00
12077;BME280;12420;42.676;23.262;2024-01-07T02:28:58;92778.41;;;5.48;100.00
12077;BME280;12420;42.676;23.262;2024-01-07T02:31:24;92776.00;;;5.44;100.00
12077;BME280;12420;42.676;23.262;2024-01-07T02:33:51;92779.13;;;5.49;100.00
12077;BME280;12420;42.676;23.262;2024-01-07T02:36:18;92767.47;;;5.56;100.00
12077;BME280;12420;42.676;23.262;2024-01-07T02:38:45;92766.88;;;5.50;100.00
12077;BME280;12420;42.676;23.262;2024-01-07T02:41:13;92767.38;;;5.40;100.00
12077;BME280;12420;42.676;23.262;2024-01-07T02:43:40;92774.81;;;5.61;100.00
12077;BME280;12420;42.676;23.262;2024-01-07T02:46:07;92765.06;;;5.52;100.00
12077;BME280;12420;42.676;23.262;2024-01-07T02:48:33;92756.44;;;5.48;100.00
12077;BME280;12420;42.676;23.262;2024-01-07T02:51:00;92773.41;;;5.68;100.00
12077;BME280;12420;42.676;23.262;2024-01-07T02:53:28;92771.97;;;5.74;100.00
12077;BME280;12420;42.676;23.262;2024-01-07T02:55:55;92734.94;;;5.60;100.00
12077;BME280;12420;42.676;23.262;2024-01-07T02:58:23;92770.22;;;5.92;100.00
12077;BME280;12420;42.676;23.262;2024-01-07T03:00:50;92783.66;;;5.96;100.00
12077;BME280;12420;42.676;23.262;2024-01-07T03:03:16;92803.16;;;5.92;100.00
12077;BME280;12420;42.676;23.262;2024-01-07T03:05:43;92819.38;;;6.03;100.00
12077;BME280;12420;42.676;23.262;2024-01-07T03:08:10;92822.50;;;6.07;100.00
12077;BME280;12420;42.676;23.262;2024-01-07T03:10:36;92828.16;;;6.02;100.00
12077;BME280;12420;42.676;23.262;2024-01-07T03:13:04;92828.53;;;6.06;100.00
12077;BME280;12420;42.676;23.262;2024-01-07T03:15:32;92824.94;;;6.19;100.00
12077;BME280;12420;42.676;23.262;2024-01-07T03:17:58;92830.84;;;6.30;100.00
12077;BME280;12420;42.676;23.262;2024-01-07T03:20:25;92837.16;;;6.46;100.00
12077;BME280;12420;42.676;23.262;2024-01-07T03:22:52;92833.88;;;6.56;100.00
12077;BME280;12420;42.676;23.262;2024-01-07T03:25:18;92832.28;;;6.68;100.00
12077;BME280;12420;42.676;23.262;2024-01-07T03:27:45;92838.72;;;6.78;100.00
12077;BME280;12420;42.676;23.262;2024-01-07T03:30:12;92836.53;;;6.84;100.00
12077;BME280;12420;42.676;23.262;2024-01-07T03:32:40;92840.41;;;6.96;100.00
12077;BME280;12420;42.676;23.262;2024-01-07T03:35:07;92831.25;;;7.02;100.00
12077;BME280;12420;42.676;23.262;2024-01-07T03:37:35;92812.00;;;7.09;100.00
12077;BME280;12420;42.676;23.262;2024-01-07T03:40:01;92812.59;;;7.23;100.00
12077;BME280;12420;42.676;23.262;2024-01-07T03:42:28;92803.97;;;7.27;100.00
12077;BME280;12420;42.676;23.262;2024-01-07T03:44:55;92797.00;;;7.33;100.00
12077;BME280;12420;42.676;23.262;2024-01-07T03:47:21;92794.06;;;7.31;100.00
12077;BME280;12420;42.676;23.262;2024-01-07T03:49:49;92789.84;;;7.46;100.00
12077;BME280;12420;42.676;23.262;2024-01-07T03:52:16;92785.59;;;7.52;100.00
12077;BME280;12420;42.676;23.262;2024-01-07T03:54:43;92785.59;;;7.45;100.00
12077;BME280;12420;42.676;23.262;2024-01-07T03:57:09;92786.34;;;7.53;100.00
12077;BME280;12420;42.676;23.262;2024-01-07T03:59:36;92779.75;;;7.48;100.00
12077;BME280;12420;42.676;23.262;2024-01-07T04:02:03;92777.53;;;7.47;100.00
12077;BME280;12420;42.676;23.262;2024-01-07T04:04:29;92779.56;;;7.54;100.00
12077;BME280;12420;42.676;23.262;2024-01-07T04:06:58;92773.47;;;7.63;100.00
12077;BME280;12420;42.676;23.262;2024-01-07T04:09:24;92783.41;;;7.66;100.00
12077;BME280;12420;42.676;23.262;2024-01-07T04:11:51;92785.22;;;7.79;100.00
12077;BME280;12420;42.676;23.262;2024-01-07T04:14:17;92773.81;;;7.82;100.00
12077;BME280;12420;42.676;23.262;2024-01-07T04:16:44;92756.38;;;7.88;100.00
12077;BME280;12420;42.676;23.262;2024-01-07T04:19:11;92746.66;;;7.87;100.00
12077;BME280;12420;42.676;23.262;2024-01-07T04:21:38;92738.34;;;7.94;100.00
12077;BME280;12420;42.676;23.262;2024-01-07T04:24:06;92741.81;;;8.02;100.00
12077;BME280;12420;42.676;23.262;2024-01-07T04:26:32;92751.00;;;8.05;100.00
12077;BME280;12420;42.676;23.262;2024-01-07T04:28:59;92757.63;;;8.02;100.00
12077;BME280;12420;42.676;23.262;2024-01-07T04:31:26;92744.78;;;7.97;100.00
12077;BME280;12420;42.676;23.262;2024-01-07T04:33:52;92748.50;;;7.76;100.00
12077;BME280;12420;42.676;23.262;2024-01-07T04:36:19;92721.03;;;7.46;100.00
12077;BME280;12420;42.676;23.262;2024-01-07T04:38:46;92743.16;;;7.78;100.00
12077;BME280;12420;42.676;23.262;2024-01-07T04:41:14;92752.91;;;7.79;100.00
12077;BME280;12420;42.676;23.262;2024-01-07T04:43:42;92747.75;;;7.91;100.00
12077;BME280;12420;42.676;23.262;2024-01-07T04:46:09;92736.16;;;7.93;100.00
12077;BME280;12420;42.676;23.262;2024-01-07T04:48:36;92743.94;;;7.64;100.00
12077;BME280;12420;42.676;23.262;2024-01-07T04:51:03;92740.06;;;7.74;100.00
12077;BME280;12420;42.676;23.262;2024-01-07T04:53:29;92729.75;;;7.82;100.00
12077;BME280;12420;42.676;23.262;2024-01-07T04:55:56;92743.94;;;7.71;100.00
12077;BME280;12420;42.676;23.262;2024-01-07T04:58:24;92759.88;;;7.80;100.00
12077;BME280;12420;42.676;23.262;2024-01-07T05:00:51;92758.75;;;7.91;100.00
12077;BME280;12420;42.676;23.262;2024-01-07T05:03:18;92758.16;;;8.00;100.00
12077;BME280;12420;42.676;23.262;2024-01-07T05:05:45;92755.38;;;8.08;100.00
12077;BME280;12420;42.676;23.262;2024-01-07T05:08:11;92749.59;;;7.89;100.00
12077;BME280;12420;42.676;23.262;2024-01-07T05:10:38;92740.00;;;7.97;100.00
12077;BME280;12420;42.676;23.262;2024-01-07T05:13:04;92735.91;;;8.06;100.00
12077;BME280;12420;42.676;23.262;2024-01-07T05:15:33;92748.81;;;7.96;100.00
12077;BME280;12420;42.676;23.262;2024-01-07T05:18:00;92748.47;;;7.92;100.00
12077;BME280;12420;42.676;23.262;2024-01-07T05:20:27;92743.34;;;7.73;100.00
12077;BME280;12420;42.676;23.262;2024-01-07T05:22:54;92744.13;;;7.50;100.00
12077;BME280;12420;42.676;23.262;2024-01-07T05:25:21;92744.91;;;7.43;100.00
12077;BME280;12420;42.676;23.262;2024-01-07T05:27:47;92732.75;;;7.61;100.00
12077;BME280;12420;42.676;23.262;2024-01-07T05:30:14;92725.94;;;7.70;100.00
12077;BME280;12420;42.676;23.262;2024-01-07T05:32:42;92734.19;;;7.70;100.00
12077;BME280;12420;42.676;23.262;2024-01-07T05:35:09;92729.06;;;7.67;100.00
12077;BME280;12420;42.676;23.262;2024-01-07T05:37:35;92724.66;;;7.71;100.00
12077;BME280;12420;42.676;23.262;2024-01-07T05:40:02;92720.22;;;7.68;100.00
12077;BME280;12420;42.676;23.262;2024-01-07T05:42:31;92727.59;;;7.66;100.00
12077;BME280;12420;42.676;23.262;2024-01-07T05:44:58;92721.72;;;7.61;100.00
12077;BME280;12420;42.676;23.262;2024-01-07T05:47:24;92721.41;;;7.19;100.00
12077;BME280;12420;42.676;23.262;2024-01-07T05:49:52;92714.28;;;7.16;100.00
12077;BME280;12420;42.676;23.262;2024-01-07T05:52:19;92715.56;;;7.23;100.00
12077;BME280;12420;42.676;23.262;2024-01-07T05:54:46;92712.97;;;7.32;100.00
12077;BME280;12420;42.676;23.262;2024-01-07T05:57:12;92725.66;;;7.12;100.00
12077;BME280;12420;42.676;23.262;2024-01-07T05:59:39;92730.59;;;7.22;100.00
12077;BME280;12420;42.676;23.262;2024-01-07T06:02:06;92729.13;;;7.13;100.00
12077;BME280;12420;42.676;23.262;2024-01-07T06:04:32;92721.81;;;7.15;100.00
12077;BME280;12420;42.676;23.262;2024-01-07T06:07:01;92724.91;;;7.27;100.00
12077;BME280;12420;42.676;23.262;2024-01-07T06:09:27;92723.97;;;7.32;100.00
12077;BME280;12420;42.676;23.262;2024-01-07T06:11:54;92724.19;;;7.04;100.00
12077;BME280;12420;42.676;23.262;2024-01-07T06:14:21;92710.59;;;7.13;100.00
12077;BME280;12420;42.676;23.262;2024-01-07T06:16:48;92717.41;;;7.05;100.00
12077;BME280;12420;42.676;23.262;2024-01-07T06:19:16;92720.31;;;6.99;100.00
12077;BME280;12420;42.676;23.262;2024-01-07T06:21:43;92699.78;;;7.15;100.00
12077;BME280;12420;42.676;23.262;2024-01-07T06:24:11;92721.22;;;6.94;100.00
12077;BME280;12420;42.676;23.262;2024-01-07T06:26:38;92729.88;;;7.06;100.00
12077;BME280;12420;42.676;23.262;2024-01-07T06:29:05;92733.34;;;7.14;100.00
12077;BME280;12420;42.676;23.262;2024-01-07T06:31:32;92740.88;;;7.06;100.00
12077;BME280;12420;42.676;23.262;2024-01-07T06:33:59;92741.41;;;7.20;100.00
12077;BME280;12420;42.676;23.262;2024-01-07T06:36:26;92755.34;;;7.22;100.00
12077;BME280;12420;42.676;23.262;2024-01-07T06:38:52;92757.00;;;7.32;100.00
12077;BME280;12420;42.676;23.262;2024-01-07T06:41:20;92752.22;;;7.41;100.00
12077;BME280;12420;42.676;23.262;2024-01-07T06:43:47;92759.38;;;7.51;100.00
12077;BME280;12420;42.676;23.262;2024-01-07T06:46:15;92753.66;;;7.57;100.00
12077;BME280;12420;42.676;23.262;2024-01-07T06:48:42;92758.44;;;7.64;100.00
12077;BME280;12420;42.676;23.262;2024-01-07T06:51:08;92750.72;;;7.55;100.00
12077;BME280;12420;42.676;23.262;2024-01-07T06:53:35;92748.19;;;7.42;100.00
12077;BME280;12420;42.676;23.262;2024-01-07T06:56:02;92752.03;;;7.54;100.00
12077;BME280;12420;42.676;23.262;2024-01-07T06:58:30;92752.56;;;7.52;100.00
12077;BME280;12420;42.676;23.262;2024-01-07T07:00:57;92752.94;;;7.64;100.00
12077;BME280;12420;42.676;23.262;2024-01-07T07:03:24;92749.47;;;7.56;100.00
12077;BME280;12420;42.676;23.262;2024-01-07T07:05:51;92761.00;;;7.54;100.00
12077;BME280;12420;42.676;23.262;2024-01-07T07:08:17;92761.03;;;7.47;100.00
12077;BME280;12420;42.676;23.262;2024-01-07T07:10:44;92743.75;;;7.61;100.00
12077;BME280;12420;42.676;23.262;2024-01-07T07:13:11;92754.56;;;7.75;100.00
12077;BME280;12420;42.676;23.262;2024-01-07T07:15:40;92755.13;;;7.66;100.00
12077;BME280;12420;42.676;23.262;2024-01-07T07:18:06;92763.34;;;7.73;100.00
12077;BME280;12420;42.676;23.262;2024-01-07T07:20:33;92757.84;;;7.81;100.00
12077;BME280;12420;42.676;23.262;2024-01-07T07:23:00;92742.03;;;7.89;100.00
12077;BME280;12420;42.676;23.262;2024-01-07T07:25:27;92759.53;;;7.76;100.00
12077;BME280;12420;42.676;23.262;2024-01-07T07:27:53;92752.50;;;7.83;100.00
12077;BME280;12420;42.676;23.262;2024-01-07T07:30:21;92750.31;;;7.89;100.00
12077;BME280;12420;42.676;23.262;2024-01-07T07:32:49;92752.19;;;7.71;100.00
12077;BME280;12420;42.676;23.262;2024-01-07T07:35:16;92769.59;;;7.81;100.00
12077;BME280;12420;42.676;23.262;2024-01-07T07:37:42;92764.25;;;7.83;100.00
12077;BME280;12420;42.676;23.262;2024-01-07T07:40:10;92753.78;;;7.97;100.00
12077;BME280;12420;42.676;23.262;2024-01-07T07:42:38;92752.84;;;8.02;100.00
12077;BME280;12420;42.676;23.262;2024-01-07T07:45:06;92752.84;;;8.02;100.00
12077;BME280;12420;42.676;23.262;2024-01-07T07:47:32;92750.09;;;7.95;100.00
12077;BME280;12420;42.676;23.262;2024-01-07T07:50:02;92746.56;;;8.10;100.00
12077;BME280;12420;42.676;23.262;2024-01-07T07:52:30;92761.03;;;8.18;100.00
12077;BME280;12420;42.676;23.262;2024-01-07T07:54:57;92745.81;;;8.17;100.00
12077;BME280;12420;42.676;23.262;2024-01-07T07:57:24;92724.69;;;8.19;100.00
12077;BME280;12420;42.676;23.262;2024-01-07T07:59:51;92734.19;;;8.26;100.00
12077;BME280;12420;42.676;23.262;2024-01-07T08:02:18;92739.84;;;8.36;100.00
12077;BME280;12420;42.676;23.262;2024-01-07T08:04:45;92737.44;;;8.47;100.00
12077;BME280;12420;42.676;23.262;2024-01-07T08:07:13;92740.28;;;8.24;100.00
12077;BME280;12420;42.676;23.262;2024-01-07T08:09:40;92753.06;;;8.45;100.00
12077;BME280;12420;42.676;23.262;2024-01-07T08:12:06;92755.59;;;8.51;100.00
12077;BME280;12420;42.676;23.262;2024-01-07T08:14:33;92739.22;;;8.60;100.00
12077;BME280;12420;42.676;23.262;2024-01-07T08:17:01;92748.78;;;8.52;100.00
12077;BME280;12420;42.676;23.262;2024-01-07T08:19:30;92745.59;;;8.71;100.00
12077;BME280;12420;42.676;23.262;2024-01-07T08:21:56;92749.78;;;8.72;100.00
12077;BME280;12420;42.676;23.262;2024-01-07T08:24:25;92749.75;;;8.79;100.00
12077;BME280;12420;42.676;23.262;2024-01-07T08:26:53;92744.75;;;8.85;100.00
12077;BME280;12420;42.676;23.262;2024-01-07T08:29:19;92736.34;;;8.76;100.00
12077;BME280;12420;42.676;23.262;2024-01-07T08:31:46;92734.56;;;8.71;100.00
12077;BME280;12420;42.676;23.262;2024-01-07T08:34:13;92743.84;;;8.50;100.00
12077;BME280;12420;42.676;23.262;2024-01-07T08:36:40;92743.09;;;8.50;100.00
12077;BME280;12420;42.676;23.262;2024-01-07T08:39:07;92746.13;;;8.69;100.00
12077;BME280;12420;42.676;23.262;2024-01-07T08:41:35;92752.13;;;8.83;100.00
12077;BME280;12420;42.676;23.262;2024-01-07T08:44:03;92752.09;;;8.90;100.00
12077;BME280;12420;42.676;23.262;2024-01-07T08:46:29;92741.81;;;8.83;100.00
12077;BME280;12420;42.676;23.262;2024-01-07T08:48:56;92750.94;;;8.94;100.00
12077;BME280;12420;42.676;23.262;2024-01-07T08:51:23;92729.78;;;8.96;100.00
12077;BME280;12420;42.676;23.262;2024-01-07T08:53:50;92741.50;;;9.04;100.00
12077;BME280;12420;42.676;23.262;2024-01-07T08:56:16;92732.50;;;9.04;100.00
12077;BME280;12420;42.676;23.262;2024-01-07T08:58:44;92726.13;;;8.94;100.00
12077;BME280;12420;42.676;23.262;2024-01-07T09:01:11;92728.31;;;9.20;100.00
12077;BME280;12420;42.676;23.262;2024-01-07T09:03:39;92726.78;;;9.27;100.00
12077;BME280;12420;42.676;23.262;2024-01-07T09:06:06;92729.81;;;9.39;100.00
12077;BME280;12420;42.676;23.262;2024-01-07T09:08:33;92743.06;;;9.40;100.00
12077;BME280;12420;42.676;23.262;2024-01-07T09:11:04;92733.38;;;9.49;100.00
12077;BME280;12420;42.676;23.262;2024-01-07T09:13:32;92744.75;;;9.35;100.00
12077;BME280;12420;42.676;23.262;2024-01-07T09:16:00;92747.81;;;9.65;100.00
12077;BME280;12420;42.676;23.262;2024-01-07T09:18:27;92747.75;;;9.72;100.00
12077;BME280;12420;42.676;23.262;2024-01-07T09:20:54;92752.47;;;9.80;100.00
12077;BME280;12420;42.676;23.262;2024-01-07T09:23:22;92751.56;;;9.94;100.00
12077;BME280;12420;42.676;23.262;2024-01-07T09:25:48;92749.22;;;10.08;100.00
12077;BME280;12420;42.676;23.262;2024-01-07T09:28:15;92747.19;;;10.09;100.00
12077;BME280;12420;42.676;23.262;2024-01-07T09:30:42;92751.16;;;10.33;100.00
12077;BME280;12420;42.676;23.262;2024-01-07T09:33:10;92750.03;;;10.36;100.00
12077;BME280;12420;42.676;23.262;2024-01-07T09:35:36;92746.03;;;10.47;100.00
12077;BME280;12420;42.676;23.262;2024-01-07T09:38:03;92738.06;;;10.51;100.00
12077;BME280;12420;42.676;23.262;2024-01-07T09:40:30;92746.19;;;10.49;100.00
12077;BME280;12420;42.676;23.262;2024-01-07T09:42:57;92741.25;;;10.74;100.00
12077;BME280;12420;42.676;23.262;2024-01-07T09:45:25;92737.78;;;10.83;100.00
12077;BME280;12420;42.676;23.262;2024-01-07T09:47:52;92742.59;;;10.56;100.00
12077;BME280;12420;42.676;23.262;2024-01-07T09:50:21;92742.81;;;10.68;100.00
12077;BME280;12420;42.676;23.262;2024-01-07T09:52:48;92747.78;;;10.69;100.00
12077;BME280;12420;42.676;23.262;2024-01-07T09:55:25;92739.44;;;10.86;100.00
12077;BME280;12420;42.676;23.262;2024-01-07T09:57:53;92741.44;;;10.86;100.00
12077;BME280;12420;42.676;23.262;2024-01-07T10:00:20;92738.94;;;11.07;100.00
12077;BME280;12420;42.676;23.262;2024-01-07T10:02:47;92733.56;;;11.10;100.00
12077;BME280;12420;42.676;23.262;2024-01-07T10:05:14;92727.13;;;11.07;100.00
12077;BME280;12420;42.676;23.262;2024-01-07T10:07:43;92732.91;;;11.01;100.00
12077;BME280;12420;42.676;23.262;2024-01-07T10:10:14;92728.59;;;11.08;100.00
12077;BME280;12420;42.676;23.262;2024-01-07T10:12:40;92721.31;;;11.13;100.00
12077;BME280;12420;42.676;23.262;2024-01-07T10:15:08;92712.28;;;11.12;100.00
12077;BME280;12420;42.676;23.262;2024-01-07T10:17:35;92707.19;;;11.18;100.00
12077;BME280;12420;42.676;23.262;2024-01-07T10:20:04;92706.34;;;11.25;100.00
12077;BME280;12420;42.676;23.262;2024-01-07T10:22:34;92705.63;;;11.35;100.00
12077;BME280;12420;42.676;23.262;2024-01-07T10:25:03;92690.34;;;11.34;100.00
12077;BME280;12420;42.676;23.262;2024-01-07T10:27:33;92699.97;;;11.33;100.00
12077;BME280;12420;42.676;23.262;2024-01-07T10:29:59;92698.25;;;11.37;100.00
12077;BME280;12420;42.676;23.262;2024-01-07T10:32:26;92698.81;;;11.36;100.00
12077;BME280;12420;42.676;23.262;2024-01-07T10:35:00;92695.03;;;11.41;100.00
12077;BME280;12420;42.676;23.262;2024-01-07T10:37:28;92675.63;;;11.31;100.00
12077;BME280;12420;42.676;23.262;2024-01-07T10:39:56;92676.19;;;11.29;100.00
12077;BME280;12420;42.676;23.262;2024-01-07T10:42:28;92681.03;;;11.39;100.00
12077;BME280;12420;42.676;23.262;2024-01-07T10:44:54;92669.53;;;11.42;100.00
12077;BME280;12420;42.676;23.262;2024-01-07T10:47:22;92675.34;;;11.46;100.00
12077;BME280;12420;42.676;23.262;2024-01-07T10:49:50;92669.22;;;11.38;100.00
12077;BME280;12420;42.676;23.262;2024-01-07T10:52:17;92671.53;;;11.32;100.00
12077;BME280;12420;42.676;23.262;2024-01-07T10:54:46;92679.56;;;11.38;100.00
12077;BME280;12420;42.676;23.262;2024-01-07T10:57:19;92675.78;;;11.43;100.00
12077;BME280;12420;42.676;23.262;2024-01-07T10:59:50;92667.91;;;11.49;100.00
12077;BME280;12420;42.676;23.262;2024-01-07T11:02:20;92638.59;;;11.36;100.00
12077;BME280;12420;42.676;23.262;2024-01-07T11:04:53;92674.66;;;11.65;100.00
12077;BME280;12420;42.676;23.262;2024-01-07T11:07:28;92670.56;;;11.66;100.00
12077;BME280;12420;42.676;23.262;2024-01-07T11:10:08;92679.19;;;11.70;100.00
12077;BME280;12420;42.676;23.262;2024-01-07T11:12:35;92678.44;;;11.80;100.00
12077;BME280;12420;42.676;23.262;2024-01-07T11:15:05;92679.19;;;11.70;100.00
12077;BME280;12420;42.676;23.262;2024-01-07T11:17:41;92679.19;;;11.80;100.00
12077;BME280;12420;42.676;23.262;2024-01-07T11:20:20;92675.38;;;11.66;100.00
12077;BME280;12420;42.676;23.262;2024-01-07T11:22:48;92675.97;;;11.74;100.00
12077;BME280;12420;42.676;23.262;2024-01-07T11:25:30;92683.72;;;11.76;100.00
12077;BME280;12420;42.676;23.262;2024-01-07T11:27:58;92681.66;;;11.76;100.00
12077;BME280;12420;42.676;23.262;2024-01-07T11:30:26;92678.59;;;11.72;100.00
12077;BME280;12420;42.676;23.262;2024-01-07T11:32:57;92675.66;;;11.70;100.00
12077;BME280;12420;42.676;23.262;2024-01-07T11:35:54;92672.88;;;11.41;100.00
12077;BME280;12420;42.676;23.262;2024-01-07T11:38:22;92685.81;;;11.28;100.00
12077;BME280;12420;42.676;23.262;2024-01-07T11:40:49;92659.44;;;11.27;100.00
12077;BME280;12420;42.676;23.262;2024-01-07T11:43:16;92681.34;;;11.52;100.00
12077;BME280;12420;42.676;23.262;2024-01-07T11:45:45;92683.69;;;11.56;100.00
12077;BME280;12420;42.676;23.262;2024-01-07T11:48:12;92674.19;;;11.49;100.00
12077;BME280;12420;42.676;23.262;2024-01-07T11:50:39;92683.09;;;11.48;100.00
12077;BME280;12420;42.676;23.262;2024-01-07T11:53:06;92682.06;;;11.53;100.00
12077;BME280;12420;42.676;23.262;2024-01-07T11:55:33;92685.13;;;11.57;100.00
12077;BME280;12420;42.676;23.262;2024-01-07T11:58:02;92680.59;;;11.42;100.00
12077;BME280;12420;42.676;23.262;2024-01-07T12:00:31;92675.34;;;11.37;100.00
12077;BME280;12420;42.676;23.262;2024-01-07T12:02:59;92676.19;;;11.29;100.00
12077;BME280;12420;42.676;23.262;2024-01-07T12:05:27;92676.31;;;11.12;100.00
12077;BME280;12420;42.676;23.262;2024-01-07T12:07:53;92673.50;;;11.02;100.00
12077;BME280;12420;42.676;23.262;2024-01-07T12:10:20;92672.91;;;11.04;100.00
12077;BME280;12420;42.676;23.262;2024-01-07T12:12:47;92675.44;;;11.19;100.00
12077;BME280;12420;42.676;23.262;2024-01-07T12:15:14;92684.38;;;11.27;100.00
12077;BME280;12420;42.676;23.262;2024-01-07T12:17:41;92668.88;;;11.15;100.00
12077;BME280;12420;42.676;23.262;2024-01-07T12:20:11;92687.69;;;11.26;100.00
12077;BME280;12420;42.676;23.262;2024-01-07T12:22:37;92691.66;;;11.33;100.00
12077;BME280;12420;42.676;23.262;2024-01-07T12:25:06;92681.34;;;11.43;100.00
12077;BME280;12420;42.676;23.262;2024-01-07T12:27:35;92680.38;;;11.11;100.00
12077;BME280;12420;42.676;23.262;2024-01-07T12:30:02;92677.63;;;11.21;100.00
12077;BME280;12420;42.676;23.262;2024-01-07T12:32:30;92673.09;;;11.16;100.00
12077;BME280;12420;42.676;23.262;2024-01-07T12:34:57;92677.69;;;10.94;100.00
12077;BME280;12420;42.676;23.262;2024-01-07T12:37:27;92681.88;;;10.85;100.00
12077;BME280;12420;42.676;23.262;2024-01-07T12:39:54;92681.44;;;10.89;100.00
12077;BME280;12420;42.676;23.262;2024-01-07T12:42:21;92675.78;;;10.86;100.00
12077;BME280;12420;42.676;23.262;2024-01-07T12:44:48;92677.38;;;10.90;100.00
12077;BME280;12420;42.676;23.262;2024-01-07T12:47:16;92685.41;;;10.95;100.00
12077;BME280;12420;42.676;23.262;2024-01-07T12:49:42;92681.81;;;11.02;100.00